Time,TemperatureF,DewpointF,PressureIn,WindDirection,WindDirectionDegrees,WindSpeedMPH,WindSpeedGustMPH,Humidity,HourlyPrecipIn,Conditions,Clouds,dailyrainin,SoftwareType,DateUTC
2013-02-02 00:03:00,82.0,82.0,29.66,North,0,0.0,0.0,99,0.00,,,0.00,,2013-02-01 14:03:00,
2013-02-02 00:11:00,82.0,82.0,29.66,North,0,0.0,0.0,99,0.00,,,0.00,,2013-02-01 14:11:00,
2013-02-02 00:21:00,82.0,82.0,29.67,North,0,0.0,0.0,99,0.00,,,0.00,,2013-02-01 14:21:00,
2013-02-02 00:32:00,81.0,81.0,29.66,North,0,0.0,0.0,99,0.00,,,0.00,,2013-02-01 14:32:00,
2013-02-02 00:42:00,81.0,81.0,29.66,North,0,0.0,0.0,99,0.00,,,0.00,,2013-02-01 14:42:00,
2013-02-02 00:52:00,81.0,81.0,29.66,North,0,0.0,0.0,99,0.00,,,0.00,,2013-02-01 14:52:00,
2013-02-02 01:02:00,81.0,81.0,29.66,North,0,0.0,0.0,99,0.00,,,0.00,,2013-02-01 15:02:00,
2013-02-02 01:11:00,81.0,81.0,29.66,North,0,0.0,0.0,99,0.00,,,0.00,,2013-02-01 15:11:00,
2013-02-02 01:21:00,81.0,81.0,29.66,North,0,0.0,0.0,99,0.00,,,0.00,,2013-02-01 15:21:00,
2013-02-02 01:33:00,82.0,82.0,29.65,SE,135,0.0,1.0,99,0.00,,,0.00,,2013-02-01 15:33:00,
2013-02-02 01:42:00,82.0,82.0,29.65,SE,135,0.0,1.0,99,0.00,,,0.00,,2013-02-01 15:42:00,
2013-02-02 01:52:00,82.0,82.0,29.65,SE,135,0.0,1.0,99,0.00,,,0.00,,2013-02-01 15:52:00,
2013-02-02 02:02:00,82.0,82.0,29.64,North,0,0.0,0.0,99,0.00,,,0.00,,2013-02-01 16:02:00,
2013-02-02 02:11:00,82.0,82.0,29.63,SSW,206,0.0,2.0,99,0.00,,,0.00,,2013-02-01 16:11:00,
2013-02-02 02:21:00,82.0,82.0,29.63,SSW,206,0.0,2.0,99,0.00,,,0.00,,2013-02-01 16:21:00,
2013-02-02 02:32:00,81.0,81.0,29.63,North,0,0.0,0.0,99,0.00,,,0.00,,2013-02-01 16:32:00,
2013-02-02 02:42:00,82.0,82.0,29.62,North,0,0.0,0.0,99,0.00,,,0.00,,2013-02-01 16:42:00,
2013-02-02 02:52:00,82.0,82.0,29.62,North,0,0.0,0.0,99,0.00,,,0.00,,2013-02-01 16:52:00,
2013-02-02 03:02:00,82.0,82.0,29.62,NNE,33,0.0,2.0,99,0.00,,,0.00,,2013-02-01 17:02:00,
2013-02-02 03:11:00,82.0,82.0,29.62,NNE,33,0.0,2.0,99,0.00,,,0.00,,2013-02-01 17:11:00,
2013-02-02 03:21:00,82.0,82.0,29.62,NNE,33,0.0,2.0,99,0.00,,,0.00,,2013-02-01 17:21:00,
2013-02-02 03:31:00,81.0,81.0,29.61,NNW,342,1.0,3.0,99,0.00,,,0.00,,2013-02-01 17:31:00,
2013-02-02 03:41:00,81.0,81.0,29.61,NNW,342,1.0,3.0,99,0.00,,,0.00,,2013-02-01 17:41:00,
2013-02-02 03:53:00,81.0,81.0,29.61,NNW,342,1.0,3.0,99,0.00,,,0.00,,2013-02-01 17:53:00,
2013-02-02 04:02:00,81.0,81.0,29.61,NNW,342,1.0,3.0,99,0.00,,,0.00,,2013-02-01 18:02:00,
2013-02-02 04:11:00,81.0,81.0,29.61,NNW,342,1.0,3.0,99,0.00,,,0.00,,2013-02-01 18:11:00,
2013-02-02 04:32:00,85.0,82.0,29.62,East,89,0.0,7.0,92,0.00,,,0.00,,2013-02-01 18:32:00,
2013-02-02 04:42:00,85.0,82.0,29.62,East,89,0.0,7.0,92,0.00,,,0.00,,2013-02-01 18:42:00,
2013-02-02 04:53:00,85.0,83.0,29.63,NNW,336,0.0,5.0,95,0.00,,,0.00,,2013-02-01 18:53:00,
2013-02-02 05:02:00,86.0,81.0,29.63,East,92,0.0,8.0,86,0.00,,,0.00,,2013-02-01 19:02:00,
2013-02-02 05:11:00,86.0,81.0,29.63,East,92,0.0,8.0,86,0.00,,,0.00,,2013-02-01 19:11:00,
2013-02-02 05:21:00,86.0,81.0,29.63,East,92,0.0,8.0,86,0.00,,,0.00,,2013-02-01 19:21:00,
2013-02-02 05:32:00,86.0,81.0,29.63,East,92,0.0,8.0,86,0.00,,,0.00,,2013-02-01 19:32:00,
2013-02-02 05:41:00,86.0,81.0,29.63,East,92,0.0,8.0,86,0.00,,,0.00,,2013-02-01 19:41:00,
2013-02-02 05:52:00,86.0,80.0,29.64,NNW,334,1.0,8.0,83,0.00,,,0.00,,2013-02-01 19:52:00,
2013-02-02 06:02:00,86.0,80.0,29.65,East,83,0.0,11.0,83,0.00,,,0.00,,2013-02-01 20:02:00,
2013-02-02 06:11:00,86.0,80.0,29.65,East,83,0.0,11.0,83,0.00,,,0.00,,2013-02-01 20:11:00,
2013-02-02 06:21:00,86.0,80.0,29.65,East,83,0.0,11.0,83,0.00,,,0.00,,2013-02-01 20:21:00,
2013-02-02 06:31:00,85.0,80.0,29.66,ENE,69,1.0,6.0,86,0.00,,,0.00,,2013-02-01 20:31:00,
2013-02-02 06:41:00,85.0,80.0,29.66,ENE,69,1.0,6.0,86,0.00,,,0.00,,2013-02-01 20:41:00,
2013-02-02 06:52:00,85.0,81.0,29.67,North,8,0.0,3.0,88,0.00,,,0.00,,2013-02-01 20:52:00,
2013-02-02 07:01:00,85.0,82.0,29.68,NW,325,0.0,4.0,90,0.00,,,0.00,,2013-02-01 21:01:00,
2013-02-02 07:11:00,85.0,82.0,29.68,NW,325,0.0,4.0,90,0.00,,,0.00,,2013-02-01 21:11:00,
2013-02-02 07:21:00,85.0,82.0,29.68,NW,325,0.0,4.0,90,0.00,,,0.00,,2013-02-01 21:21:00,
2013-02-02 07:31:00,86.0,82.0,29.68,North,7,1.0,8.0,88,0.00,,,0.00,,2013-02-01 21:31:00,
2013-02-02 07:41:00,86.0,82.0,29.68,North,7,1.0,8.0,88,0.00,,,0.00,,2013-02-01 21:41:00,
2013-02-02 07:52:00,87.0,82.0,29.67,NNW,348,3.0,9.0,86,0.00,,,0.00,,2013-02-01 21:52:00,
2013-02-02 08:02:00,89.0,84.0,29.68,NW,314,0.0,8.0,84,0.00,,,0.00,,2013-02-01 22:02:00,
2013-02-02 08:11:00,89.0,84.0,29.68,NW,314,0.0,8.0,84,0.00,,,0.00,,2013-02-01 22:11:00,
2013-02-02 08:21:00,89.0,84.0,29.68,NW,314,0.0,8.0,84,0.00,,,0.00,,2013-02-01 22:21:00,
2013-02-02 08:32:00,91.0,84.0,29.68,East,84,2.0,10.0,79,0.00,,,0.00,,2013-02-01 22:32:00,
2013-02-02 08:41:00,91.0,84.0,29.68,East,84,2.0,10.0,79,0.00,,,0.00,,2013-02-01 22:41:00,
2013-02-02 08:52:00,91.0,84.0,29.68,East,84,2.0,10.0,79,0.00,,,0.00,,2013-02-01 22:52:00,
2013-02-02 09:01:00,95.0,85.0,29.69,NW,311,1.0,10.0,72,0.00,,,0.00,,2013-02-01 23:01:00,
2013-02-02 09:11:00,95.0,85.0,29.69,NW,311,1.0,10.0,72,0.00,,,0.00,,2013-02-01 23:11:00,
2013-02-02 09:21:00,95.0,85.0,29.69,NW,311,1.0,10.0,72,0.00,,,0.00,,2013-02-01 23:21:00,
2013-02-02 09:31:00,95.0,85.0,29.69,NW,311,1.0,10.0,72,0.00,,,0.00,,2013-02-01 23:31:00,
2013-02-02 09:41:00,95.0,85.0,29.69,NW,311,1.0,10.0,72,0.00,,,0.00,,2013-02-01 23:41:00,
2013-02-02 10:21:00,100.0,80.0,29.69,North,349,2.0,8.0,54,0.00,,,0.00,,2013-02-02 00:21:00,
2013-02-02 10:32:00,101.0,80.0,29.69,NNW,338,1.0,10.0,52,0.00,,,0.00,,2013-02-02 00:32:00,
2013-02-02 10:41:00,101.0,80.0,29.69,NNW,338,1.0,10.0,52,0.00,,,0.00,,2013-02-02 00:41:00,
2013-02-02 10:52:00,101.0,79.0,29.69,North,4,1.0,7.0,51,0.00,,,0.00,,2013-02-02 00:52:00,
2013-02-02 11:02:00,101.0,78.0,29.68,North,7,2.0,7.0,49,0.00,,,0.00,,2013-02-02 01:02:00,
2013-02-02 11:11:00,101.0,78.0,29.68,North,7,2.0,7.0,49,0.00,,,0.00,,2013-02-02 01:11:00,
2013-02-02 11:21:00,101.0,78.0,29.68,North,7,2.0,7.0,49,0.00,,,0.00,,2013-02-02 01:21:00,
2013-02-02 11:31:00,106.0,74.0,29.68,NNE,21,1.0,4.0,37,0.00,,,0.00,,2013-02-02 01:31:00,
2013-02-02 11:42:00,106.0,74.0,29.68,NNE,21,1.0,4.0,37,0.00,,,0.00,,2013-02-02 01:42:00,
2013-02-02 11:52:00,107.0,75.0,29.67,SSW,209,2.0,6.0,37,0.00,,,0.00,,2013-02-02 01:52:00,
2013-02-02 12:01:00,105.0,73.0,29.67,SW,215,4.0,8.0,37,0.00,,,0.00,,2013-02-02 02:01:00,
2013-02-02 12:11:00,105.0,73.0,29.67,SW,215,4.0,8.0,37,0.00,,,0.00,,2013-02-02 02:11:00,
2013-02-02 12:21:00,105.0,73.0,29.67,SW,215,4.0,8.0,37,0.00,,,0.00,,2013-02-02 02:21:00,
2013-02-02 12:31:00,105.0,73.0,29.67,SW,215,4.0,8.0,37,0.00,,,0.00,,2013-02-02 02:31:00,
2013-02-02 12:41:00,105.0,73.0,29.67,SW,215,4.0,8.0,37,0.00,,,0.00,,2013-02-02 02:41:00,
2013-02-02 12:52:00,102.0,85.0,29.66,SSE,156,2.0,13.0,60,0.00,,,0.00,,2013-02-02 02:52:00,
2013-02-02 13:02:00,101.0,87.0,29.65,South,179,2.0,8.0,64,0.00,,,0.00,,2013-02-02 03:02:00,
2013-02-02 13:11:00,101.0,87.0,29.65,South,179,2.0,8.0,64,0.00,,,0.00,,2013-02-02 03:11:00,
2013-02-02 13:21:00,101.0,87.0,29.65,South,179,2.0,8.0,64,0.00,,,0.00,,2013-02-02 03:21:00,
2013-02-02 13:32:00,101.0,88.0,29.65,SE,144,2.0,8.0,67,0.00,,,0.00,,2013-02-02 03:32:00,
2013-02-02 13:42:00,101.0,88.0,29.65,SE,144,2.0,8.0,67,0.00,,,0.00,,2013-02-02 03:42:00,
2013-02-02 13:52:00,101.0,88.0,29.65,SE,144,2.0,8.0,67,0.00,,,0.00,,2013-02-02 03:52:00,
2013-02-02 14:01:00,101.0,87.0,29.64,South,183,0.0,8.0,65,0.00,,,0.00,,2013-02-02 04:01:00,
2013-02-02 14:11:00,101.0,87.0,29.64,South,183,0.0,8.0,65,0.00,,,0.00,,2013-02-02 04:11:00,
2013-02-02 14:21:00,101.0,84.0,29.63,SSE,158,2.0,5.0,59,0.00,,,0.00,,2013-02-02 04:21:00,
2013-02-02 14:32:00,102.0,84.0,29.62,ESE,121,2.0,5.0,58,0.00,,,0.00,,2013-02-02 04:32:00,
2013-02-02 14:41:00,102.0,84.0,29.62,ESE,121,2.0,5.0,58,0.00,,,0.00,,2013-02-02 04:41:00,
2013-02-02 14:51:00,102.0,86.0,29.62,SE,129,2.0,6.0,61,0.00,,,0.00,,2013-02-02 04:51:00,
2013-02-02 15:02:00,101.0,86.0,29.62,SE,145,2.0,8.0,62,0.00,,,0.00,,2013-02-02 05:02:00,
2013-02-02 15:11:00,101.0,86.0,29.62,SE,145,2.0,8.0,62,0.00,,,0.00,,2013-02-02 05:11:00,
2013-02-02 15:22:00,101.0,86.0,29.62,SE,145,2.0,8.0,62,0.00,,,0.00,,2013-02-02 05:22:00,
2013-02-02 15:33:00,100.0,86.0,29.61,SE,146,3.0,7.0,64,0.00,,,0.00,,2013-02-02 05:33:00,
2013-02-02 15:42:00,100.0,86.0,29.61,SE,146,3.0,7.0,64,0.00,,,0.00,,2013-02-02 05:42:00,
2013-02-02 15:52:00,100.0,87.0,29.61,SSE,149,2.0,6.0,68,0.00,,,0.00,,2013-02-02 05:52:00,
2013-02-02 16:02:00,100.0,87.0,29.61,SSE,149,2.0,6.0,68,0.00,,,0.00,,2013-02-02 06:02:00,
2013-02-02 16:11:00,100.0,87.0,29.61,SSE,149,2.0,6.0,68,0.00,,,0.00,,2013-02-02 06:11:00,
2013-02-02 16:21:00,100.0,87.0,29.61,SSE,149,2.0,6.0,68,0.00,,,0.00,,2013-02-02 06:21:00,
2013-02-02 17:02:00,97.0,86.0,29.61,SSE,150,1.0,7.0,71,0.00,,,0.00,,2013-02-02 07:02:00,
2013-02-02 17:11:00,97.0,86.0,29.61,SSE,150,1.0,7.0,71,0.00,,,0.00,,2013-02-02 07:11:00,
2013-02-02 17:21:00,97.0,86.0,29.61,SSE,150,1.0,7.0,71,0.00,,,0.00,,2013-02-02 07:21:00,
2013-02-02 17:31:00,97.0,86.0,29.61,SSE,150,1.0,7.0,71,0.00,,,0.00,,2013-02-02 07:31:00,
2013-02-02 17:41:00,97.0,86.0,29.61,SSE,150,1.0,7.0,71,0.00,,,0.00,,2013-02-02 07:41:00,
2013-02-02 17:52:00,91.0,85.0,29.62,SE,142,0.0,4.0,82,0.00,,,0.00,,2013-02-02 07:52:00,
2013-02-02 18:01:00,90.0,86.0,29.64,East,97,0.0,4.0,88,0.00,,,0.00,,2013-02-02 08:01:00,
2013-02-02 18:11:00,90.0,86.0,29.64,East,97,0.0,4.0,88,0.00,,,0.00,,2013-02-02 08:11:00,
2013-02-02 18:21:00,89.0,88.0,29.64,SE,124,1.0,6.0,97,0.00,,,0.00,,2013-02-02 08:21:00,
2013-02-02 18:31:00,89.0,88.0,29.64,SE,124,1.0,6.0,97,0.00,,,0.00,,2013-02-02 08:31:00,
2013-02-02 18:41:00,89.0,88.0,29.64,SE,124,1.0,6.0,97,0.00,,,0.00,,2013-02-02 08:41:00,
2013-02-02 18:52:00,89.0,88.0,29.64,SE,124,1.0,6.0,97,0.00,,,0.00,,2013-02-02 08:52:00,
2013-02-02 19:52:00,86.0,80.0,29.65,North,0,0.0,0.0,82,0.00,,,0.00,,2013-02-02 09:52:00,
2013-02-02 20:01:00,86.0,80.0,29.65,East,90,0.0,1.0,82,0.00,,,0.00,,2013-02-02 10:01:00,
2013-02-02 20:11:00,86.0,80.0,29.65,East,90,0.0,1.0,82,0.00,,,0.00,,2013-02-02 10:11:00,
2013-02-02 20:21:00,86.0,80.0,29.65,East,90,0.0,1.0,82,0.00,,,0.00,,2013-02-02 10:21:00,
2013-02-02 20:31:00,85.0,80.0,29.66,North,0,0.0,0.0,86,0.00,,,0.00,,2013-02-02 10:31:00,
2013-02-02 20:42:00,85.0,80.0,29.66,North,0,0.0,0.0,86,0.00,,,0.00,,2013-02-02 10:42:00,
2013-02-02 20:52:00,84.0,81.0,29.67,North,0,0.0,0.0,90,0.00,,,0.00,,2013-02-02 10:52:00,
2013-02-02 21:01:00,84.0,81.0,29.67,North,0,0.0,0.0,90,0.00,,,0.00,,2013-02-02 11:01:00,
2013-02-02 21:11:00,84.0,81.0,29.67,North,0,0.0,0.0,90,0.00,,,0.00,,2013-02-02 11:11:00,
2013-02-02 21:21:00,84.0,81.0,29.67,North,0,0.0,0.0,90,0.00,,,0.00,,2013-02-02 11:21:00,
2013-02-02 21:32:00,83.0,83.0,29.69,North,0,0.0,0.0,99,0.00,,,0.00,,2013-02-02 11:32:00,
2013-02-02 21:42:00,83.0,83.0,29.69,North,0,0.0,0.0,99,0.00,,,0.00,,2013-02-02 11:42:00,
2013-02-02 21:52:00,82.0,82.0,29.69,NE,45,0.0,1.0,99,0.00,,,0.00,,2013-02-02 11:52:00,
2013-02-02 22:01:00,82.0,82.0,29.70,North,0,0.0,0.0,99,0.00,,,0.00,,2013-02-02 12:01:00,
2013-02-02 22:11:00,82.0,82.0,29.70,North,0,0.0,0.0,99,0.00,,,0.00,,2013-02-02 12:11:00,
2013-02-02 22:22:00,81.0,81.0,29.70,NE,45,0.0,1.0,99,0.00,,,0.00,,2013-02-02 12:22:00,
2013-02-02 22:32:00,81.0,81.0,29.70,NE,45,0.0,1.0,99,0.00,,,0.00,,2013-02-02 12:32:00,
2013-02-02 22:42:00,81.0,81.0,29.70,NE,45,0.0,1.0,99,0.00,,,0.00,,2013-02-02 12:42:00,
2013-02-02 22:52:00,81.0,81.0,29.71,North,0,0.0,0.0,99,0.00,,,0.00,,2013-02-02 12:52:00,
2013-02-02 23:02:00,81.0,81.0,29.71,NW,314,0.0,1.0,99,0.00,,,0.00,,2013-02-02 13:02:00,
2013-02-02 23:11:00,81.0,81.0,29.71,NW,314,0.0,1.0,99,0.00,,,0.00,,2013-02-02 13:11:00,
2013-02-02 23:21:00,81.0,81.0,29.71,NW,314,0.0,1.0,99,0.00,,,0.00,,2013-02-02 13:21:00,
2013-02-02 23:32:00,80.0,80.0,29.71,North,355,0.0,2.0,99,0.00,,,0.00,,2013-02-02 13:32:00,
2013-02-02 23:42:00,80.0,80.0,29.71,North,355,0.0,2.0,99,0.00,,,0.00,,2013-02-02 13:42:00,
2013-02-02 23:52:00,80.0,80.0,29.71,North,355,0.0,2.0,99,0.00,,,0.00,,2013-02-02 13:52:00,